sensor_id;sensor_type;location;lat;lon;timestamp;temperature;humidity
7447;DHT22;3765;47.962;7.952;2022-09-09T00:00:13;15.70;69.20
7447;DHT22;3765;47.962;7.952;2022-09-09T00:02:48;15.60;69.30
7447;DHT22;3765;47.962;7.952;2022-09-09T00:05:23;15.60;69.50
7447;DHT22;3765;47.962;7.952;2022-09-09T00:07:56;15.50;69.50
7447;DHT22;3765;47.962;7.952;2022-09-09T00:10:30;15.60;69.70
7447;DHT22;3765;47.962;7.952;2022-09-09T00:13:08;15.60;69.70
7447;DHT22;3765;47.962;7.952;2022-09-09T00:15:50;15.50;69.70
7447;DHT22;3765;47.962;7.952;2022-09-09T00:18:25;15.50;69.80
7447;DHT22;3765;47.962;7.952;2022-09-09T00:20:59;15.50;69.90
7447;DHT22;3765;47.962;7.952;2022-09-09T00:23:32;15.50;69.90
7447;DHT22;3765;47.962;7.952;2022-09-09T00:26:08;15.60;70.00
7447;DHT22;3765;47.962;7.952;2022-09-09T00:28:41;15.60;70.00
7447;DHT22;3765;47.962;7.952;2022-09-09T00:31:17;15.60;70.10
7447;DHT22;3765;47.962;7.952;2022-09-09T00:33:48;15.60;70.10
7447;DHT22;3765;47.962;7.952;2022-09-09T00:36:20;15.70;70.20
7447;DHT22;3765;47.962;7.952;2022-09-09T00:38:52;15.70;70.20
7447;DHT22;3765;47.962;7.952;2022-09-09T00:41:33;15.70;70.20
7447;DHT22;3765;47.962;7.952;2022-09-09T00:44:15;15.80;70.30
7447;DHT22;3765;47.962;7.952;2022-09-09T00:47:01;15.70;70.10
7447;DHT22;3765;47.962;7.952;2022-09-09T00:49:41;15.50;70.20
7447;DHT22;3765;47.962;7.952;2022-09-09T00:52:22;15.50;70.40
7447;DHT22;3765;47.962;7.952;2022-09-09T00:55:03;15.60;70.40
7447;DHT22;3765;47.962;7.952;2022-09-09T00:57:35;15.60;70.40
7447;DHT22;3765;47.962;7.952;2022-09-09T01:00:21;15.50;70.50
7447;DHT22;3765;47.962;7.952;2022-09-09T01:03:02;15.60;70.60
7447;DHT22;3765;47.962;7.952;2022-09-09T01:05:39;15.40;70.70
7447;DHT22;3765;47.962;7.952;2022-09-09T01:08:19;15.50;70.90
7447;DHT22;3765;47.962;7.952;2022-09-09T01:10:52;15.40;70.70
7447;DHT22;3765;47.962;7.952;2022-09-09T01:13:25;15.50;71.00
7447;DHT22;3765;47.962;7.952;2022-09-09T01:15:54;15.50;70.80
7447;DHT22;3765;47.962;7.952;2022-09-09T01:18:30;15.50;70.70
7447;DHT22;3765;47.962;7.952;2022-09-09T01:21:06;15.70;70.70
7447;DHT22;3765;47.962;7.952;2022-09-09T01:23:47;15.70;70.40
7447;DHT22;3765;47.962;7.952;2022-09-09T01:26:23;15.70;70.30
7447;DHT22;3765;47.962;7.952;2022-09-09T01:28:53;15.70;70.30
7447;DHT22;3765;47.962;7.952;2022-09-09T01:31:26;15.80;70.30
7447;DHT22;3765;47.962;7.952;2022-09-09T01:33:55;15.80;70.30
7447;DHT22;3765;47.962;7.952;2022-09-09T01:36:28;15.80;70.30
7447;DHT22;3765;47.962;7.952;2022-09-09T01:38:57;15.80;70.30
7447;DHT22;3765;47.962;7.952;2022-09-09T01:41:27;15.90;70.30
7447;DHT22;3765;47.962;7.952;2022-09-09T01:43:55;16.00;70.20
7447;DHT22;3765;47.962;7.952;2022-09-09T01:46:25;16.10;70.10
7447;DHT22;3765;47.962;7.952;2022-09-09T01:48:55;16.20;70.20
7447;DHT22;3765;47.962;7.952;2022-09-09T01:51:24;16.20;70.40
7447;DHT22;3765;47.962;7.952;2022-09-09T01:53:52;16.20;70.40
7447;DHT22;3765;47.962;7.952;2022-09-09T01:56:30;16.40;70.00
7447;DHT22;3765;47.962;7.952;2022-09-09T01:59:11;16.30;70.00
7447;DHT22;3765;47.962;7.952;2022-09-09T02:01:56;16.20;70.30
7447;DHT22;3765;47.962;7.952;2022-09-09T02:04:34;15.90;70.80
7447;DHT22;3765;47.962;7.952;2022-09-09T02:07:09;15.70;71.60
7447;DHT22;3765;47.962;7.952;2022-09-09T02:09:45;15.80;71.90
7447;DHT22;3765;47.962;7.952;2022-09-09T02:12:18;15.80;71.90
7447;DHT22;3765;47.962;7.952;2022-09-09T02:14:52;15.90;71.80
7447;DHT22;3765;47.962;7.952;2022-09-09T02:17:26;16.00;72.00
7447;DHT22;3765;47.962;7.952;2022-09-09T02:20:03;16.10;72.10
7447;DHT22;3765;47.962;7.952;2022-09-09T02:22:34;16.10;72.20
7447;DHT22;3765;47.962;7.952;2022-09-09T02:25:04;16.10;72.40
7447;DHT22;3765;47.962;7.952;2022-09-09T02:27:35;16.10;72.50
7447;DHT22;3765;47.962;7.952;2022-09-09T02:30:05;16.10;72.80
7447;DHT22;3765;47.962;7.952;2022-09-09T02:32:34;16.10;72.80
7447;DHT22;3765;47.962;7.952;2022-09-09T02:35:07;16.10;72.90
7447;DHT22;3765;47.962;7.952;2022-09-09T02:37:39;16.10;72.90
7447;DHT22;3765;47.962;7.952;2022-09-09T02:40:11;16.10;72.80
7447;DHT22;3765;47.962;7.952;2022-09-09T02:42:42;16.20;72.90
7447;DHT22;3765;47.962;7.952;2022-09-09T02:45:13;16.10;72.70
7447;DHT22;3765;47.962;7.952;2022-09-09T02:47:48;16.10;73.00
7447;DHT22;3765;47.962;7.952;2022-09-09T02:50:22;16.10;73.10
7447;DHT22;3765;47.962;7.952;2022-09-09T02:53:06;16.10;73.20
7447;DHT22;3765;47.962;7.952;2022-09-09T02:55:41;16.10;73.30
7447;DHT22;3765;47.962;7.952;2022-09-09T02:58:17;16.10;73.40
7447;DHT22;3765;47.962;7.952;2022-09-09T03:00:47;16.10;73.30
7447;DHT22;3765;47.962;7.952;2022-09-09T03:03:17;15.90;73.40
7447;DHT22;3765;47.962;7.952;2022-09-09T03:05:46;15.90;73.70
7447;DHT22;3765;47.962;7.952;2022-09-09T03:08:15;15.90;73.70
7447;DHT22;3765;47.962;7.952;2022-09-09T03:10:43;15.90;73.80
7447;DHT22;3765;47.962;7.952;2022-09-09T03:13:13;15.90;73.70
7447;DHT22;3765;47.962;7.952;2022-09-09T03:15:42;15.90;73.70
7447;DHT22;3765;47.962;7.952;2022-09-09T03:18:10;16.00;73.90
7447;DHT22;3765;47.962;7.952;2022-09-09T03:20:38;16.00;73.90
7447;DHT22;3765;47.962;7.952;2022-09-09T03:23:08;16.00;73.80
7447;DHT22;3765;47.962;7.952;2022-09-09T03:25:46;16.00;73.90
7447;DHT22;3765;47.962;7.952;2022-09-09T03:28:17;16.00;73.90
7447;DHT22;3765;47.962;7.952;2022-09-09T03:30:45;16.20;73.90
7447;DHT22;3765;47.962;7.952;2022-09-09T03:33:13;16.20;73.90
7447;DHT22;3765;47.962;7.952;2022-09-09T03:35:45;16.20;73.80
7447;DHT22;3765;47.962;7.952;2022-09-09T03:38:15;16.20;73.80
7447;DHT22;3765;47.962;7.952;2022-09-09T03:40:49;16.30;73.80
7447;DHT22;3765;47.962;7.952;2022-09-09T03:43:19;16.20;73.90
7447;DHT22;3765;47.962;7.952;2022-09-09T03:45:48;16.20;73.90
7447;DHT22;3765;47.962;7.952;2022-09-09T03:48:17;16.30;73.90
7447;DHT22;3765;47.962;7.952;2022-09-09T03:50:45;16.30;73.80
7447;DHT22;3765;47.962;7.952;2022-09-09T03:53:15;16.30;73.80
7447;DHT22;3765;47.962;7.952;2022-09-09T03:55:44;16.30;73.80
7447;DHT22;3765;47.962;7.952;2022-09-09T03:58:14;16.30;73.80
7447;DHT22;3765;47.962;7.952;2022-09-09T04:00:43;16.60;73.70
7447;DHT22;3765;47.962;7.952;2022-09-09T04:03:12;16.70;72.90
7447;DHT22;3765;47.962;7.952;2022-09-09T04:05:40;16.70;72.80
7447;DHT22;3765;47.962;7.952;2022-09-09T04:08:09;16.50;72.90
7447;DHT22;3765;47.962;7.952;2022-09-09T04:10:38;16.50;73.00
7447;DHT22;3765;47.962;7.952;2022-09-09T04:13:06;16.70;73.00
7447;DHT22;3765;47.962;7.952;2022-09-09T04:15:34;16.80;72.80
7447;DHT22;3765;47.962;7.952;2022-09-09T04:18:04;16.80;72.40
7447;DHT22;3765;47.962;7.952;2022-09-09T04:20:33;16.70;72.50
7447;DHT22;3765;47.962;7.952;2022-09-09T04:23:02;16.60;72.60
7447;DHT22;3765;47.962;7.952;2022-09-09T04:25:30;16.70;72.60
7447;DHT22;3765;47.962;7.952;2022-09-09T04:27:58;16.60;72.50
7447;DHT22;3765;47.962;7.952;2022-09-09T04:30:26;16.90;72.30
7447;DHT22;3765;47.962;7.952;2022-09-09T04:32:56;17.00;71.90
7447;DHT22;3765;47.962;7.952;2022-09-09T04:35:25;17.00;71.80
7447;DHT22;3765;47.962;7.952;2022-09-09T04:37:54;17.20;71.90
7447;DHT22;3765;47.962;7.952;2022-09-09T04:40:22;17.10;71.30
7447;DHT22;3765;47.962;7.952;2022-09-09T04:42:50;17.30;71.20
7447;DHT22;3765;47.962;7.952;2022-09-09T04:45:18;17.30;70.90
7447;DHT22;3765;47.962;7.952;2022-09-09T04:47:47;17.40;70.70
7447;DHT22;3765;47.962;7.952;2022-09-09T04:50:15;17.50;70.30
7447;DHT22;3765;47.962;7.952;2022-09-09T04:52:45;17.50;70.20
7447;DHT22;3765;47.962;7.952;2022-09-09T04:55:13;17.60;69.90
7447;DHT22;3765;47.962;7.952;2022-09-09T04:57:42;17.60;69.80
7447;DHT22;3765;47.962;7.952;2022-09-09T05:00:11;17.50;69.80
7447;DHT22;3765;47.962;7.952;2022-09-09T05:02:40;17.50;69.80
7447;DHT22;3765;47.962;7.952;2022-09-09T05:05:09;17.50;69.90
7447;DHT22;3765;47.962;7.952;2022-09-09T05:07:38;17.50;69.70
7447;DHT22;3765;47.962;7.952;2022-09-09T05:10:08;17.50;69.80
7447;DHT22;3765;47.962;7.952;2022-09-09T05:12:37;17.40;69.90
7447;DHT22;3765;47.962;7.952;2022-09-09T05:15:06;17.30;70.10
7447;DHT22;3765;47.962;7.952;2022-09-09T05:17:34;17.30;70.40
7447;DHT22;3765;47.962;7.952;2022-09-09T05:20:03;17.30;70.50
7447;DHT22;3765;47.962;7.952;2022-09-09T05:22:35;17.30;70.50
7447;DHT22;3765;47.962;7.952;2022-09-09T05:25:05;17.40;70.10
7447;DHT22;3765;47.962;7.952;2022-09-09T05:27:35;17.50;69.70
7447;DHT22;3765;47.962;7.952;2022-09-09T05:30:05;17.80;69.50
7447;DHT22;3765;47.962;7.952;2022-09-09T05:32:33;17.70;69.30
7447;DHT22;3765;47.962;7.952;2022-09-09T05:35:01;17.70;69.30
7447;DHT22;3765;47.962;7.952;2022-09-09T05:37:31;17.80;69.20
7447;DHT22;3765;47.962;7.952;2022-09-09T05:40:00;17.70;69.10
7447;DHT22;3765;47.962;7.952;2022-09-09T05:42:30;17.60;69.30
7447;DHT22;3765;47.962;7.952;2022-09-09T05:45:00;17.60;69.50
7447;DHT22;3765;47.962;7.952;2022-09-09T05:47:28;17.60;69.70
7447;DHT22;3765;47.962;7.952;2022-09-09T05:49:57;17.60;69.80
7447;DHT22;3765;47.962;7.952;2022-09-09T05:52:25;17.70;69.70
7447;DHT22;3765;47.962;7.952;2022-09-09T05:54:53;17.70;69.70
7447;DHT22;3765;47.962;7.952;2022-09-09T05:57:23;17.80;69.50
7447;DHT22;3765;47.962;7.952;2022-09-09T05:59:51;17.80;69.00
7447;DHT22;3765;47.962;7.952;2022-09-09T06:02:21;17.80;68.90
7447;DHT22;3765;47.962;7.952;2022-09-09T06:04:50;17.90;69.00
7447;DHT22;3765;47.962;7.952;2022-09-09T06:07:18;17.90;68.80
7447;DHT22;3765;47.962;7.952;2022-09-09T06:09:46;18.00;68.90
7447;DHT22;3765;47.962;7.952;2022-09-09T06:12:15;18.00;68.90
7447;DHT22;3765;47.962;7.952;2022-09-09T06:14:43;17.90;69.00
7447;DHT22;3765;47.962;7.952;2022-09-09T06:17:12;17.90;69.00
7447;DHT22;3765;47.962;7.952;2022-09-09T06:19:42;18.00;69.10
7447;DHT22;3765;47.962;7.952;2022-09-09T06:22:10;18.00;68.70
7447;DHT22;3765;47.962;7.952;2022-09-09T06:24:38;18.10;68.50
7447;DHT22;3765;47.962;7.952;2022-09-09T06:27:07;18.10;68.50
7447;DHT22;3765;47.962;7.952;2022-09-09T06:29:35;18.20;68.20
7447;DHT22;3765;47.962;7.952;2022-09-09T06:32:03;18.30;67.80
7447;DHT22;3765;47.962;7.952;2022-09-09T06:34:31;18.30;67.80
7447;DHT22;3765;47.962;7.952;2022-09-09T06:37:01;18.40;67.50
7447;DHT22;3765;47.962;7.952;2022-09-09T06:39:29;18.40;67.40
7447;DHT22;3765;47.962;7.952;2022-09-09T06:41:58;18.60;67.50
7447;DHT22;3765;47.962;7.952;2022-09-09T06:44:26;18.50;67.40
7447;DHT22;3765;47.962;7.952;2022-09-09T06:47:00;18.60;67.30
7447;DHT22;3765;47.962;7.952;2022-09-09T06:49:28;18.60;66.80
7447;DHT22;3765;47.962;7.952;2022-09-09T06:51:56;18.60;66.90
7447;DHT22;3765;47.962;7.952;2022-09-09T06:54:26;18.60;67.00
7447;DHT22;3765;47.962;7.952;2022-09-09T06:56:55;18.50;67.00
7447;DHT22;3765;47.962;7.952;2022-09-09T06:59:23;18.60;67.10
7447;DHT22;3765;47.962;7.952;2022-09-09T07:01:52;18.50;66.90
7447;DHT22;3765;47.962;7.952;2022-09-09T07:04:22;18.60;66.90
7447;DHT22;3765;47.962;7.952;2022-09-09T07:06:50;18.80;66.80
7447;DHT22;3765;47.962;7.952;2022-09-09T07:09:20;18.90;66.40
7447;DHT22;3765;47.962;7.952;2022-09-09T07:11:51;19.00;65.70
7447;DHT22;3765;47.962;7.952;2022-09-09T07:14:20;19.20;65.80
7447;DHT22;3765;47.962;7.952;2022-09-09T07:16:48;19.20;65.60
7447;DHT22;3765;47.962;7.952;2022-09-09T07:19:16;19.50;65.50
7447;DHT22;3765;47.962;7.952;2022-09-09T07:21:45;19.40;65.00
7447;DHT22;3765;47.962;7.952;2022-09-09T07:24:13;19.40;65.00
7447;DHT22;3765;47.962;7.952;2022-09-09T07:26:42;19.30;64.90
7447;DHT22;3765;47.962;7.952;2022-09-09T07:29:12;19.40;64.80
7447;DHT22;3765;47.962;7.952;2022-09-09T07:31:46;19.30;64.40
7447;DHT22;3765;47.962;7.952;2022-09-09T07:34:15;19.30;64.70
7447;DHT22;3765;47.962;7.952;2022-09-09T07:36:43;19.20;64.20
7447;DHT22;3765;47.962;7.952;2022-09-09T07:39:13;19.10;64.10
7447;DHT22;3765;47.962;7.952;2022-09-09T07:41:42;19.10;63.80
7447;DHT22;3765;47.962;7.952;2022-09-09T07:44:14;19.00;63.90
7447;DHT22;3765;47.962;7.952;2022-09-09T07:46:43;19.10;64.20
7447;DHT22;3765;47.962;7.952;2022-09-09T07:49:12;19.30;64.00
7447;DHT22;3765;47.962;7.952;2022-09-09T07:51:41;19.40;63.70
7447;DHT22;3765;47.962;7.952;2022-09-09T07:54:12;19.30;63.30
7447;DHT22;3765;47.962;7.952;2022-09-09T07:56:41;19.30;63.20
7447;DHT22;3765;47.962;7.952;2022-09-09T07:59:09;19.30;63.40
7447;DHT22;3765;47.962;7.952;2022-09-09T08:01:41;19.50;63.10
7447;DHT22;3765;47.962;7.952;2022-09-09T08:04:12;19.60;63.20
7447;DHT22;3765;47.962;7.952;2022-09-09T08:06:43;19.70;63.10
7447;DHT22;3765;47.962;7.952;2022-09-09T08:09:11;19.50;62.90
7447;DHT22;3765;47.962;7.952;2022-09-09T08:11:41;19.50;63.00
7447;DHT22;3765;47.962;7.952;2022-09-09T08:14:11;19.60;62.90
7447;DHT22;3765;47.962;7.952;2022-09-09T08:16:42;19.60;62.80
7447;DHT22;3765;47.962;7.952;2022-09-09T08:19:10;19.50;62.40
7447;DHT22;3765;47.962;7.952;2022-09-09T08:21:40;19.30;62.60
7447;DHT22;3765;47.962;7.952;2022-09-09T08:24:10;19.40;62.60
7447;DHT22;3765;47.962;7.952;2022-09-09T08:26:40;19.30;62.70
7447;DHT22;3765;47.962;7.952;2022-09-09T08:29:10;19.30;62.80
7447;DHT22;3765;47.962;7.952;2022-09-09T08:31:41;19.20;62.90
7447;DHT22;3765;47.962;7.952;2022-09-09T08:34:10;19.10;62.60
7447;DHT22;3765;47.962;7.952;2022-09-09T08:36:42;19.00;62.50
7447;DHT22;3765;47.962;7.952;2022-09-09T08:39:12;19.00;62.40
7447;DHT22;3765;47.962;7.952;2022-09-09T08:44:46;19.30;62.20
7447;DHT22;3765;47.962;7.952;2022-09-09T08:47:23;19.50;61.90
7447;DHT22;3765;47.962;7.952;2022-09-09T08:50:07;19.80;61.50
7447;DHT22;3765;47.962;7.952;2022-09-09T08:52:49;19.90;61.00
7447;DHT22;3765;47.962;7.952;2022-09-09T08:55:27;19.80;60.70
7447;DHT22;3765;47.962;7.952;2022-09-09T08:57:58;20.00;60.60
7447;DHT22;3765;47.962;7.952;2022-09-09T09:00:33;20.30;60.60
7447;DHT22;3765;47.962;7.952;2022-09-09T09:03:09;20.50;59.70
7447;DHT22;3765;47.962;7.952;2022-09-09T09:05:46;20.60;59.10
7447;DHT22;3765;47.962;7.952;2022-09-09T09:08:20;20.50;58.10
7447;DHT22;3765;47.962;7.952;2022-09-09T09:10:55;20.60;58.20
7447;DHT22;3765;47.962;7.952;2022-09-09T09:13:30;20.70;57.20
7447;DHT22;3765;47.962;7.952;2022-09-09T09:16:06;20.50;57.30
7447;DHT22;3765;47.962;7.952;2022-09-09T09:18:37;20.40;57.60
7447;DHT22;3765;47.962;7.952;2022-09-09T09:21:10;20.40;57.20
7447;DHT22;3765;47.962;7.952;2022-09-09T09:23:44;20.60;56.70
7447;DHT22;3765;47.962;7.952;2022-09-09T09:26:13;20.80;56.60
7447;DHT22;3765;47.962;7.952;2022-09-09T09:28:41;21.00;55.80
7447;DHT22;3765;47.962;7.952;2022-09-09T09:31:10;21.20;55.50
7447;DHT22;3765;47.962;7.952;2022-09-09T09:33:47;21.10;55.60
7447;DHT22;3765;47.962;7.952;2022-09-09T09:36:16;21.30;55.20
7447;DHT22;3765;47.962;7.952;2022-09-09T09:38:56;21.30;54.90
7447;DHT22;3765;47.962;7.952;2022-09-09T09:41:45;21.50;54.70
7447;DHT22;3765;47.962;7.952;2022-09-09T09:44:23;21.50;54.60
7447;DHT22;3765;47.962;7.952;2022-09-09T09:46:52;21.40;54.20
7447;DHT22;3765;47.962;7.952;2022-09-09T09:49:22;21.40;53.90
7447;DHT22;3765;47.962;7.952;2022-09-09T09:51:50;21.30;53.70
7447;DHT22;3765;47.962;7.952;2022-09-09T09:54:27;21.40;53.70
7447;DHT22;3765;47.962;7.952;2022-09-09T09:56:56;21.40;53.40
7447;DHT22;3765;47.962;7.952;2022-09-09T09:59:35;21.60;53.50
7447;DHT22;3765;47.962;7.952;2022-09-09T10:02:18;21.90;53.20
7447;DHT22;3765;47.962;7.952;2022-09-09T10:04:48;21.80;52.10
7447;DHT22;3765;47.962;7.952;2022-09-09T10:07:19;21.50;52.10
7447;DHT22;3765;47.962;7.952;2022-09-09T10:09:51;21.50;51.20
7447;DHT22;3765;47.962;7.952;2022-09-09T10:12:32;21.60;51.80
7447;DHT22;3765;47.962;7.952;2022-09-09T10:15:07;21.80;51.80
7447;DHT22;3765;47.962;7.952;2022-09-09T10:17:44;21.80;51.80
7447;DHT22;3765;47.962;7.952;2022-09-09T10:20:29;22.00;51.80
7447;DHT22;3765;47.962;7.952;2022-09-09T10:23:11;22.20;50.40
7447;DHT22;3765;47.962;7.952;2022-09-09T10:25:59;22.00;50.00
7447;DHT22;3765;47.962;7.952;2022-09-09T10:28:37;21.80;50.20
7447;DHT22;3765;47.962;7.952;2022-09-09T10:31:18;21.80;49.80
7447;DHT22;3765;47.962;7.952;2022-09-09T10:33:51;22.10;50.40
7447;DHT22;3765;47.962;7.952;2022-09-09T10:36:25;22.10;50.20
7447;DHT22;3765;47.962;7.952;2022-09-09T10:38:59;21.90;49.50
7447;DHT22;3765;47.962;7.952;2022-09-09T10:41:42;21.90;50.10
7447;DHT22;3765;47.962;7.952;2022-09-09T10:44:25;22.00;49.70
7447;DHT22;3765;47.962;7.952;2022-09-09T10:47:15;21.80;50.30
7447;DHT22;3765;47.962;7.952;2022-09-09T10:50:08;21.60;50.40
7447;DHT22;3765;47.962;7.952;2022-09-09T10:52:49;21.40;51.00
7447;DHT22;3765;47.962;7.952;2022-09-09T10:55:20;21.30;51.80
7447;DHT22;3765;47.962;7.952;2022-09-09T10:57:58;21.30;53.00
7447;DHT22;3765;47.962;7.952;2022-09-09T11:00:31;21.10;52.80
7447;DHT22;3765;47.962;7.952;2022-09-09T11:03:04;21.10;52.80
7447;DHT22;3765;47.962;7.952;2022-09-09T11:05:39;21.20;52.80
7447;DHT22;3765;47.962;7.952;2022-09-09T11:08:13;21.00;53.40
7447;DHT22;3765;47.962;7.952;2022-09-09T11:10:45;21.10;53.60
7447;DHT22;3765;47.962;7.952;2022-09-09T11:13:21;21.30;53.10
7447;DHT22;3765;47.962;7.952;2022-09-09T11:15:57;21.60;53.40
7447;DHT22;3765;47.962;7.952;2022-09-09T11:18:29;21.80;52.90
7447;DHT22;3765;47.962;7.952;2022-09-09T11:21:01;21.70;52.10
7447;DHT22;3765;47.962;7.952;2022-09-09T11:23:36;21.80;52.40
7447;DHT22;3765;47.962;7.952;2022-09-09T11:26:13;21.90;51.90
7447;DHT22;3765;47.962;7.952;2022-09-09T11:28:55;22.00;51.60
7447;DHT22;3765;47.962;7.952;2022-09-09T11:31:44;22.10;52.00
7447;DHT22;3765;47.962;7.952;2022-09-09T11:34:23;21.90;52.50
7447;DHT22;3765;47.962;7.952;2022-09-09T11:40:09;21.70;53.20
7447;DHT22;3765;47.962;7.952;2022-09-09T11:42:42;21.60;52.70
7447;DHT22;3765;47.962;7.952;2022-09-09T11:45:22;21.80;53.00
7447;DHT22;3765;47.962;7.952;2022-09-09T11:47:53;21.90;52.60
7447;DHT22;3765;47.962;7.952;2022-09-09T11:50:31;21.90;52.50
7447;DHT22;3765;47.962;7.952;2022-09-09T11:53:14;22.40;52.60
7447;DHT22;3765;47.962;7.952;2022-09-09T11:55:45;23.20;51.70
7447;DHT22;3765;47.962;7.952;2022-09-09T11:58:17;23.50;51.10
7447;DHT22;3765;47.962;7.952;2022-09-09T12:00:48;23.60;50.60
7447;DHT22;3765;47.962;7.952;2022-09-09T12:03:38;23.80;50.30
7447;DHT22;3765;47.962;7.952;2022-09-09T12:06:12;23.50;49.60
7447;DHT22;3765;47.962;7.952;2022-09-09T12:08:43;23.30;49.40
7447;DHT22;3765;47.962;7.952;2022-09-09T12:11:24;23.10;49.60
7447;DHT22;3765;47.962;7.952;2022-09-09T12:13:54;22.80;49.50
7447;DHT22;3765;47.962;7.952;2022-09-09T12:16:31;23.10;49.50
7447;DHT22;3765;47.962;7.952;2022-09-09T12:19:06;23.30;48.40
7447;DHT22;3765;47.962;7.952;2022-09-09T12:21:46;23.40;48.00
7447;DHT22;3765;47.962;7.952;2022-09-09T12:24:20;23.40;47.40
7447;DHT22;3765;47.962;7.952;2022-09-09T12:26:57;23.50;47.30
7447;DHT22;3765;47.962;7.952;2022-09-09T12:29:30;23.10;46.80
7447;DHT22;3765;47.962;7.952;2022-09-09T12:32:06;22.90;47.30
7447;DHT22;3765;47.962;7.952;2022-09-09T12:34:38;22.80;47.20
7447;DHT22;3765;47.962;7.952;2022-09-09T12:37:16;23.10;47.60
7447;DHT22;3765;47.962;7.952;2022-09-09T12:39:49;23.50;47.30
7447;DHT22;3765;47.962;7.952;2022-09-09T12:42:22;23.70;46.80
7447;DHT22;3765;47.962;7.952;2022-09-09T12:44:51;24.00;46.20
7447;DHT22;3765;47.962;7.952;2022-09-09T12:47:21;24.20;46.30
7447;DHT22;3765;47.962;7.952;2022-09-09T12:49:55;23.70;45.20
7447;DHT22;3765;47.962;7.952;2022-09-09T12:52:27;23.70;46.50
7447;DHT22;3765;47.962;7.952;2022-09-09T12:54:59;23.70;46.10
7447;DHT22;3765;47.962;7.952;2022-09-09T12:57:35;23.80;46.30
7447;DHT22;3765;47.962;7.952;2022-09-09T13:00:06;23.50;46.20
7447;DHT22;3765;47.962;7.952;2022-09-09T13:02:46;23.30;46.70
7447;DHT22;3765;47.962;7.952;2022-09-09T13:05:16;23.30;46.70
7447;DHT22;3765;47.962;7.952;2022-09-09T13:07:45;23.20;46.70
7447;DHT22;3765;47.962;7.952;2022-09-09T13:10:18;22.90;47.20
7447;DHT22;3765;47.962;7.952;2022-09-09T13:13:14;22.80;47.20
7447;DHT22;3765;47.962;7.952;2022-09-09T13:15:50;22.30;47.60
7447;DHT22;3765;47.962;7.952;2022-09-09T13:18:21;22.10;47.80
7447;DHT22;3765;47.962;7.952;2022-09-09T13:20:51;22.00;48.20
7447;DHT22;3765;47.962;7.952;2022-09-09T13:23:20;22.00;48.50
7447;DHT22;3765;47.962;7.952;2022-09-09T13:25:56;22.00;48.70
7447;DHT22;3765;47.962;7.952;2022-09-09T13:28:27;21.90;48.90
7447;DHT22;3765;47.962;7.952;2022-09-09T13:31:00;21.70;49.40
7447;DHT22;3765;47.962;7.952;2022-09-09T13:33:32;21.30;51.50
7447;DHT22;3765;47.962;7.952;2022-09-09T13:36:03;20.90;52.30
7447;DHT22;3765;47.962;7.952;2022-09-09T13:38:35;20.70;52.60
7447;DHT22;3765;47.962;7.952;2022-09-09T13:41:05;20.60;52.90
7447;DHT22;3765;47.962;7.952;2022-09-09T13:43:37;20.40;53.20
7447;DHT22;3765;47.962;7.952;2022-09-09T13:46:24;20.60;53.60
7447;DHT22;3765;47.962;7.952;2022-09-09T13:48:57;21.30;54.00
7447;DHT22;3765;47.962;7.952;2022-09-09T13:51:34;22.20;54.30
7447;DHT22;3765;47.962;7.952;2022-09-09T13:54:04;22.80;52.80
7447;DHT22;3765;47.962;7.952;2022-09-09T13:56:34;23.30;52.60
7447;DHT22;3765;47.962;7.952;2022-09-09T13:59:06;23.20;52.30
7447;DHT22;3765;47.962;7.952;2022-09-09T14:01:34;23.30;52.20
7447;DHT22;3765;47.962;7.952;2022-09-09T14:04:05;23.50;51.10
7447;DHT22;3765;47.962;7.952;2022-09-09T14:06:35;23.70;51.60
7447;DHT22;3765;47.962;7.952;2022-09-09T14:09:05;23.80;51.20
7447;DHT22;3765;47.962;7.952;2022-09-09T14:11:34;24.00;50.10
7447;DHT22;3765;47.962;7.952;2022-09-09T14:14:03;24.50;48.80
7447;DHT22;3765;47.962;7.952;2022-09-09T14:16:33;24.50;48.30
7447;DHT22;3765;47.962;7.952;2022-09-09T14:19:01;24.60;47.70
7447;DHT22;3765;47.962;7.952;2022-09-09T14:21:29;24.50;47.10
7447;DHT22;3765;47.962;7.952;2022-09-09T14:23:58;25.00;46.50
7447;DHT22;3765;47.962;7.952;2022-09-09T14:26:26;25.30;46.60
7447;DHT22;3765;47.962;7.952;2022-09-09T14:28:55;25.50;45.50
7447;DHT22;3765;47.962;7.952;2022-09-09T14:31:25;25.90;45.40
7447;DHT22;3765;47.962;7.952;2022-09-09T14:33:54;26.10;45.00
7447;DHT22;3765;47.962;7.952;2022-09-09T14:36:22;25.60;44.30
7447;DHT22;3765;47.962;7.952;2022-09-09T14:38:51;25.50;44.80
7447;DHT22;3765;47.962;7.952;2022-09-09T14:41:21;25.00;44.50
7447;DHT22;3765;47.962;7.952;2022-09-09T14:43:50;25.30;45.20
7447;DHT22;3765;47.962;7.952;2022-09-09T14:46:19;25.30;44.90
7447;DHT22;3765;47.962;7.952;2022-09-09T14:48:49;26.00;44.40
7447;DHT22;3765;47.962;7.952;2022-09-09T14:51:24;26.20;44.10
7447;DHT22;3765;47.962;7.952;2022-09-09T14:53:55;26.20;43.80
7447;DHT22;3765;47.962;7.952;2022-09-09T14:56:25;26.20;43.80
7447;DHT22;3765;47.962;7.952;2022-09-09T14:58:54;26.10;43.40
7447;DHT22;3765;47.962;7.952;2022-09-09T15:01:23;26.30;43.80
7447;DHT22;3765;47.962;7.952;2022-09-09T15:03:56;26.70;43.50
7447;DHT22;3765;47.962;7.952;2022-09-09T15:06:27;26.50;42.50
7447;DHT22;3765;47.962;7.952;2022-09-09T15:08:57;25.50;43.60
7447;DHT22;3765;47.962;7.952;2022-09-09T15:11:26;25.70;43.40
7447;DHT22;3765;47.962;7.952;2022-09-09T15:13:57;26.40;43.40
7447;DHT22;3765;47.962;7.952;2022-09-09T15:16:27;26.90;42.50
7447;DHT22;3765;47.962;7.952;2022-09-09T15:18:58;26.80;41.90
7447;DHT22;3765;47.962;7.952;2022-09-09T15:21:28;25.60;42.10
7447;DHT22;3765;47.962;7.952;2022-09-09T15:23:57;24.90;43.10
7447;DHT22;3765;47.962;7.952;2022-09-09T15:26:26;25.00;43.50
7447;DHT22;3765;47.962;7.952;2022-09-09T15:28:54;25.20;43.20
7447;DHT22;3765;47.962;7.952;2022-09-09T15:31:27;24.60;42.80
7447;DHT22;3765;47.962;7.952;2022-09-09T15:33:59;23.80;43.70
7447;DHT22;3765;47.962;7.952;2022-09-09T15:36:29;23.30;44.50
7447;DHT22;3765;47.962;7.952;2022-09-09T15:38:59;23.10;44.70
7447;DHT22;3765;47.962;7.952;2022-09-09T15:41:28;23.00;45.10
7447;DHT22;3765;47.962;7.952;2022-09-09T15:43:56;22.90;45.30
7447;DHT22;3765;47.962;7.952;2022-09-09T15:46:28;22.70;45.70
7447;DHT22;3765;47.962;7.952;2022-09-09T15:49:03;22.60;46.10
7447;DHT22;3765;47.962;7.952;2022-09-09T15:51:32;22.40;46.30
7447;DHT22;3765;47.962;7.952;2022-09-09T15:54:11;22.30;46.70
7447;DHT22;3765;47.962;7.952;2022-09-09T15:56:40;22.00;47.00
7447;DHT22;3765;47.962;7.952;2022-09-09T15:59:09;21.80;47.50
7447;DHT22;3765;47.962;7.952;2022-09-09T16:01:38;21.80;47.80
7447;DHT22;3765;47.962;7.952;2022-09-09T16:04:09;21.60;48.20
7447;DHT22;3765;47.962;7.952;2022-09-09T16:06:37;21.50;48.30
7447;DHT22;3765;47.962;7.952;2022-09-09T16:09:06;21.30;48.50
7447;DHT22;3765;47.962;7.952;2022-09-09T16:11:36;21.30;48.60
7447;DHT22;3765;47.962;7.952;2022-09-09T16:14:05;21.30;48.90
7447;DHT22;3765;47.962;7.952;2022-09-09T16:16:35;21.20;49.20
7447;DHT22;3765;47.962;7.952;2022-09-09T16:19:05;21.20;49.30
7447;DHT22;3765;47.962;7.952;2022-09-09T16:21:37;21.00;50.10
7447;DHT22;3765;47.962;7.952;2022-09-09T16:24:08;20.80;51.30
7447;DHT22;3765;47.962;7.952;2022-09-09T16:26:38;20.80;51.70
7447;DHT22;3765;47.962;7.952;2022-09-09T16:29:06;20.40;52.20
7447;DHT22;3765;47.962;7.952;2022-09-09T16:31:36;20.30;52.80
7447;DHT22;3765;47.962;7.952;2022-09-09T16:34:04;20.20;54.00
7447;DHT22;3765;47.962;7.952;2022-09-09T16:36:36;19.80;55.30
7447;DHT22;3765;47.962;7.952;2022-09-09T16:39:16;19.70;56.30